createdAt,value
2018-06-27T00:00:35.373Z,93.30
2018-06-27T00:03:38.540Z,93.30
2018-06-27T00:06:41.709Z,94.10
2018-06-27T00:09:44.848Z,93.90
2018-06-27T00:12:47.995Z,93.90
2018-06-27T00:18:54.051Z,93.80
2018-06-27T00:21:57.192Z,93.50
2018-06-27T00:25:00.651Z,93.90
2018-06-27T00:28:03.807Z,93.40
2018-06-27T00:31:06.939Z,94.60
2018-06-27T00:34:10.091Z,94.30
2018-06-27T00:37:13.246Z,94.40
2018-06-27T00:40:16.383Z,95.60
2018-06-27T00:43:19.522Z,94.80
2018-06-27T00:46:22.668Z,95.00
2018-06-27T00:49:25.820Z,93.70
2018-06-27T00:52:28.971Z,94.90
2018-06-27T00:55:32.133Z,95.20
2018-06-27T00:58:35.286Z,95.40
2018-06-27T01:01:39.027Z,94.80
2018-06-27T01:04:42.182Z,95.70
2018-06-27T01:07:45.348Z,96.10
2018-06-27T01:10:48.500Z,96.10
2018-06-27T01:13:51.673Z,96.20
2018-06-27T01:16:54.823Z,96.20
2018-06-27T01:19:58.045Z,97.00
2018-06-27T01:23:01.135Z,96.90
2018-06-27T01:26:04.286Z,97.50
2018-06-27T01:29:07.443Z,97.50
2018-06-27T01:32:10.598Z,97.50
2018-06-27T01:35:14.150Z,96.80
2018-06-27T01:38:17.315Z,96.70
2018-06-27T01:41:20.502Z,97.00
2018-06-27T01:44:23.661Z,96.60
2018-06-27T01:47:27.114Z,97.40
2018-06-27T01:50:30.292Z,96.40
2018-06-27T01:53:33.452Z,97.50
2018-06-27T01:56:36.612Z,97.30
2018-06-27T01:59:39.777Z,97.50
2018-06-27T02:02:42.923Z,97.50
2018-06-27T02:05:46.083Z,97.50
2018-06-27T02:08:49.247Z,96.70
2018-06-27T02:11:52.390Z,96.90
2018-06-27T02:14:55.632Z,96.70
2018-06-27T02:17:58.772Z,97.50
2018-06-27T02:21:01.936Z,97.50
2018-06-27T02:24:05.079Z,97.20
2018-06-27T02:27:08.235Z,97.50
2018-06-27T02:30:11.383Z,97.00
2018-06-27T02:33:19.959Z,97.50
2018-06-27T02:36:23.119Z,97.30
2018-06-27T02:39:26.267Z,97.50
2018-06-27T02:42:29.440Z,97.50
2018-06-27T02:45:32.589Z,97.10
2018-06-27T02:48:35.741Z,97.40
2018-06-27T02:51:38.907Z,97.50
2018-06-27T02:54:42.040Z,97.50
2018-06-27T02:57:45.164Z,97.50
2018-06-27T03:00:48.288Z,97.50
2018-06-27T03:03:51.420Z,97.50
2018-06-27T03:06:54.616Z,97.50
2018-06-27T03:09:57.747Z,97.50
2018-06-27T03:13:00.900Z,97.50
2018-06-27T03:16:04.007Z,97.50
2018-06-27T03:19:07.132Z,97.50
2018-06-27T03:22:10.690Z,97.50
2018-06-27T03:25:13.802Z,97.50
2018-06-27T03:28:16.952Z,97.50
2018-06-27T03:31:20.070Z,97.50
2018-06-27T03:34:23.257Z,97.50
2018-06-27T03:37:26.490Z,97.50
2018-06-27T03:40:29.619Z,97.50
2018-06-27T03:43:32.743Z,97.50
2018-06-27T03:46:35.972Z,97.50
2018-06-27T03:49:39.088Z,97.10
2018-06-27T03:52:47.480Z,97.50
2018-06-27T03:55:50.609Z,96.90
2018-06-27T03:58:53.782Z,96.00
2018-06-27T04:01:56.988Z,97.40
2018-06-27T04:05:00.128Z,97.50
2018-06-27T04:08:03.255Z,96.70
2018-06-27T04:11:06.644Z,97.50
2018-06-27T04:14:09.794Z,97.50
2018-06-27T04:20:17.198Z,93.90
2018-06-27T04:23:20.193Z,91.50
2018-06-27T04:26:23.304Z,91.10
2018-06-27T04:29:27.339Z,87.40
2018-06-27T04:32:30.493Z,86.80
2018-06-27T04:35:33.602Z,86.30
2018-06-27T04:38:36.727Z,82.40
2018-06-27T04:41:40.395Z,81.40
2018-06-27T04:44:43.542Z,79.60
2018-06-27T04:47:46.755Z,78.50
2018-06-27T04:50:49.883Z,78.00
2018-06-27T04:53:53.069Z,74.10
2018-06-27T04:56:56.256Z,71.10
2018-06-27T04:59:59.434Z,70.80
2018-06-27T05:03:02.580Z,68.20
2018-06-27T05:06:05.883Z,67.40
2018-06-27T05:09:10.024Z,68.20
2018-06-27T05:12:13.166Z,69.50
2018-06-27T05:15:17.287Z,67.30
2018-06-27T05:18:20.467Z,65.90
2018-06-27T05:21:23.588Z,63.90
2018-06-27T05:24:26.757Z,63.70
2018-06-27T05:27:30.069Z,63.70
2018-06-27T05:30:33.198Z,63.60
2018-06-27T05:33:36.357Z,62.30
2018-06-27T05:36:39.514Z,62.80
2018-06-27T05:39:42.654Z,65.20
2018-06-27T05:42:45.819Z,65.50
2018-06-27T05:45:49.304Z,64.10
2018-06-27T05:48:54.012Z,65.30
2018-06-27T05:51:57.367Z,68.40
2018-06-27T05:55:05.998Z,70.00
2018-06-27T05:58:09.221Z,70.50
2018-06-27T06:01:12.290Z,65.20
2018-06-27T06:04:15.472Z,63.00
2018-06-27T06:07:18.550Z,67.50
2018-06-27T06:10:21.686Z,72.90
2018-06-27T06:13:24.812Z,72.50
2018-06-27T06:16:27.936Z,69.60
2018-06-27T06:19:31.046Z,70.30
2018-06-27T06:22:34.166Z,71.80
2018-06-27T06:25:37.324Z,68.30
2018-06-27T06:28:40.459Z,68.90
2018-06-27T06:31:43.578Z,68.00
2018-06-27T06:34:46.698Z,69.80
2018-06-27T06:37:49.842Z,68.30
2018-06-27T06:40:52.967Z,69.40
2018-06-27T06:43:56.090Z,67.60
2018-06-27T06:46:59.239Z,67.30
2018-06-27T06:50:02.997Z,66.60
2018-06-27T06:53:06.115Z,64.00
2018-06-27T06:56:09.300Z,64.00
2018-06-27T06:59:12.591Z,65.00
2018-06-27T07:02:15.763Z,64.20
2018-06-27T07:05:18.931Z,59.80
2018-06-27T07:08:22.095Z,57.70
2018-06-27T07:11:25.299Z,56.70
2018-06-27T07:14:28.482Z,54.90
2018-06-27T07:17:32.315Z,56.10
2018-06-27T07:20:35.463Z,59.90
2018-06-27T07:23:38.619Z,64.60
2018-06-27T07:26:41.775Z,61.60
2018-06-27T07:29:44.943Z,57.50
2018-06-27T07:32:48.249Z,57.10
2018-06-27T07:35:51.937Z,60.00
2018-06-27T07:41:58.031Z,59.70
2018-06-27T07:45:01.186Z,59.50
2018-06-27T07:48:04.352Z,59.40
2018-06-27T07:51:07.530Z,59.80
2018-06-27T07:54:11.082Z,57.60
2018-06-27T07:57:14.440Z,55.80
2018-06-27T08:00:17.628Z,55.40
2018-06-27T08:03:20.751Z,53.60
2018-06-27T08:06:23.867Z,51.00
2018-06-27T08:09:27.008Z,50.10
2018-06-27T08:12:30.682Z,50.20
2018-06-27T08:15:33.772Z,50.10
2018-06-27T08:18:39.058Z,49.70
2018-06-27T08:21:42.179Z,49.00
2018-06-27T08:24:45.320Z,50.30
2018-06-27T08:27:48.452Z,54.70
2018-06-27T08:30:51.591Z,54.30
2018-06-27T08:33:54.764Z,50.60
2018-06-27T08:36:57.899Z,47.80
2018-06-27T08:40:01.024Z,50.20
2018-06-27T08:43:04.143Z,54.00
2018-06-27T08:46:07.263Z,50.40
2018-06-27T08:49:10.420Z,48.50
2018-06-27T08:52:13.537Z,47.00
2018-06-27T08:55:16.716Z,46.40
2018-06-27T08:58:19.851Z,48.60
2018-06-27T09:01:23.020Z,48.30
2018-06-27T09:04:26.176Z,47.00
2018-06-27T09:07:29.331Z,46.80
2018-06-27T09:10:32.494Z,46.10
2018-06-27T09:13:36.318Z,45.90
2018-06-27T09:16:39.497Z,47.50
2018-06-27T09:19:42.665Z,46.20
2018-06-27T09:22:46.092Z,45.40
2018-06-27T09:25:49.252Z,45.60
2018-06-27T09:28:52.426Z,46.70
2018-06-27T09:31:55.604Z,47.00
2018-06-27T09:34:59.260Z,47.50
2018-06-27T09:38:02.416Z,46.70
2018-06-27T09:41:05.600Z,45.00
2018-06-27T09:47:13.152Z,44.80
2018-06-27T09:50:16.285Z,46.10
2018-06-27T09:53:19.439Z,45.20
2018-06-27T09:56:23.076Z,47.10
2018-06-27T09:59:26.208Z,48.10
2018-06-27T10:02:29.414Z,47.10
2018-06-27T10:05:32.631Z,47.30
2018-06-27T10:08:35.770Z,46.90
2018-06-27T10:11:39.050Z,47.10
2018-06-27T10:14:42.157Z,49.80
2018-06-27T10:17:45.300Z,52.00
2018-06-27T10:20:48.540Z,53.20
2018-06-27T10:23:51.648Z,50.70
2018-06-27T10:26:54.771Z,51.00
2018-06-27T10:29:58.424Z,53.50
2018-06-27T10:33:01.560Z,53.80
2018-06-27T10:36:04.687Z,52.50
2018-06-27T10:39:09.343Z,51.40
2018-06-27T10:42:12.600Z,52.90
2018-06-27T10:45:15.748Z,53.00
2018-06-27T10:48:18.866Z,54.10
2018-06-27T10:51:21.999Z,55.10
2018-06-27T10:54:25.136Z,53.30
2018-06-27T10:57:28.264Z,52.00
2018-06-27T11:00:31.396Z,50.50
2018-06-27T11:03:34.555Z,50.60
2018-06-27T11:06:37.812Z,50.30
2018-06-27T11:09:40.940Z,51.40
2018-06-27T11:12:44.202Z,50.90
2018-06-27T11:15:47.584Z,51.30
2018-06-27T11:18:50.708Z,50.80
2018-06-27T11:21:53.845Z,52.00
2018-06-27T11:24:56.989Z,51.10
2018-06-27T11:28:00.128Z,50.50
2018-06-27T11:31:03.258Z,52.30
2018-06-27T11:34:06.379Z,51.40
2018-06-27T11:37:09.495Z,50.50
2018-06-27T11:40:12.674Z,51.20
2018-06-27T11:43:16.134Z,50.70
2018-06-27T11:46:19.305Z,50.80
2018-06-27T11:49:22.438Z,52.30
2018-06-27T11:52:25.550Z,53.60
2018-06-27T11:55:28.720Z,57.00
2018-06-27T11:58:31.919Z,56.40
2018-06-27T12:01:35.084Z,55.60
2018-06-27T12:04:38.292Z,55.30
2018-06-27T12:07:41.487Z,55.30
2018-06-27T12:10:44.645Z,57.00
2018-06-27T12:13:48.503Z,56.80
2018-06-27T12:16:51.709Z,56.30
2018-06-27T12:19:54.828Z,55.70
2018-06-27T12:22:57.993Z,54.50
2018-06-27T12:26:01.144Z,55.00
2018-06-27T12:29:04.316Z,53.40
2018-06-27T12:32:07.483Z,54.90
2018-06-27T12:35:10.671Z,55.00
2018-06-27T12:38:13.832Z,57.20
2018-06-27T12:41:17.200Z,57.10
2018-06-27T12:44:20.370Z,55.40
2018-06-27T12:47:23.510Z,54.70
2018-06-27T12:50:26.680Z,53.30
2018-06-27T12:53:29.816Z,52.90
2018-06-27T12:56:32.952Z,53.70
2018-06-27T12:59:36.206Z,53.90
2018-06-27T13:02:39.352Z,54.30
2018-06-27T13:05:42.543Z,54.80
2018-06-27T13:08:45.737Z,54.30
2018-06-27T13:11:48.811Z,55.70
2018-06-27T13:14:52.327Z,55.60
2018-06-27T13:17:55.688Z,54.70
2018-06-27T13:20:59.564Z,53.30
2018-06-27T13:24:02.757Z,53.90
2018-06-27T13:27:06.089Z,54.20
2018-06-27T13:30:09.271Z,55.50
2018-06-27T13:33:12.446Z,54.70
2018-06-27T13:36:15.564Z,53.60
2018-06-27T13:39:18.724Z,53.90
2018-06-27T13:42:21.858Z,53.60
2018-06-27T13:45:25.005Z,51.80
2018-06-27T13:48:28.157Z,50.20
2018-06-27T13:51:31.268Z,51.80
2018-06-27T13:54:35.028Z,52.50
2018-06-27T13:57:43.944Z,51.90
2018-06-27T14:00:47.993Z,51.10
2018-06-27T14:03:51.218Z,52.20
2018-06-27T14:06:54.331Z,52.70
2018-06-27T14:09:57.538Z,52.30
2018-06-27T14:13:00.753Z,52.90
2018-06-27T14:16:03.948Z,51.60
2018-06-27T14:19:07.481Z,51.10
2018-06-27T14:22:10.631Z,52.50
2018-06-27T14:25:13.762Z,53.30
2018-06-27T14:28:16.923Z,53.90
2018-06-27T14:31:20.035Z,54.20
2018-06-27T14:34:23.989Z,55.20
2018-06-27T14:37:27.168Z,55.60
2018-06-27T14:43:33.624Z,53.60
2018-06-27T14:46:36.943Z,52.60
2018-06-27T14:49:40.186Z,52.50
2018-06-27T14:52:43.398Z,52.90
2018-06-27T14:55:47.640Z,53.50
2018-06-27T14:58:51.030Z,54.90
2018-06-27T15:01:54.790Z,54.80
2018-06-27T15:04:58.576Z,55.50
2018-06-27T15:08:02.040Z,55.50
2018-06-27T15:14:08.055Z,55.20
2018-06-27T15:20:14.111Z,55.30
2018-06-27T15:23:17.228Z,54.30
2018-06-27T15:26:20.335Z,54.10
2018-06-27T15:29:23.447Z,53.70
2018-06-27T15:32:26.563Z,53.30
2018-06-27T15:35:29.700Z,53.50
2018-06-27T15:38:32.836Z,53.30
2018-06-27T15:41:35.975Z,52.70
2018-06-27T15:44:39.215Z,53.50
2018-06-27T15:47:42.332Z,54.40
2018-06-27T15:50:45.467Z,54.60
2018-06-27T15:53:48.592Z,54.90
2018-06-27T15:56:51.712Z,54.50
2018-06-27T15:59:56.093Z,53.70
2018-06-27T16:02:59.208Z,53.00
2018-06-27T16:06:02.368Z,51.80
2018-06-27T16:09:07.008Z,52.10
2018-06-27T16:15:13.033Z,50.60
2018-06-27T16:18:16.187Z,49.40
2018-06-27T16:21:19.326Z,48.50
2018-06-27T16:24:22.480Z,48.60
2018-06-27T16:27:25.605Z,48.50
2018-06-27T16:30:28.745Z,49.90
2018-06-27T16:33:31.971Z,50.50
2018-06-27T16:36:35.096Z,50.80
2018-06-27T16:39:38.224Z,50.80
2018-06-27T16:42:41.528Z,50.30
2018-06-27T16:45:44.642Z,49.50
2018-06-27T16:48:47.777Z,50.00
2018-06-27T16:51:50.939Z,48.00
2018-06-27T16:54:54.094Z,47.90
2018-06-27T16:57:57.420Z,48.00
2018-06-27T17:01:00.609Z,47.80
2018-06-27T17:04:03.730Z,48.10
2018-06-27T17:07:07.029Z,47.10
2018-06-27T17:10:10.112Z,47.40
2018-06-27T17:13:13.506Z,47.60
2018-06-27T17:16:16.611Z,47.50
2018-06-27T17:19:20.122Z,47.50
2018-06-27T17:22:23.724Z,47.20
2018-06-27T17:25:26.864Z,46.90
2018-06-27T17:28:30.021Z,46.90
2018-06-27T17:31:33.251Z,45.90
2018-06-27T17:34:36.320Z,45.60
2018-06-27T17:37:39.560Z,46.40
2018-06-27T17:40:42.672Z,47.00
2018-06-27T17:43:46.124Z,47.40
2018-06-27T17:46:49.264Z,48.20
2018-06-27T17:49:52.377Z,48.90
2018-06-27T17:52:55.528Z,49.40
2018-06-27T17:55:58.693Z,49.50
2018-06-27T17:59:01.864Z,49.30
2018-06-27T18:02:05.075Z,48.80
2018-06-27T18:05:08.228Z,48.90
2018-06-27T18:08:11.380Z,49.10
2018-06-27T18:11:14.552Z,49.30
2018-06-27T18:14:17.716Z,49.10
2018-06-27T18:17:20.855Z,49.20
2018-06-27T18:20:24.007Z,49.50
2018-06-27T18:23:27.155Z,48.70
2018-06-27T18:26:30.308Z,48.90
2018-06-27T18:29:34.069Z,48.70
2018-06-27T18:32:37.211Z,49.40
2018-06-27T18:35:40.364Z,49.70
2018-06-27T18:38:43.608Z,50.20
2018-06-27T18:41:46.756Z,50.50
2018-06-27T18:44:49.967Z,50.50
2018-06-27T18:50:56.031Z,51.20
2018-06-27T18:53:59.250Z,51.60
2018-06-27T18:57:02.426Z,51.50
2018-06-27T19:00:07.463Z,52.10
2018-06-27T19:06:13.878Z,52.30
2018-06-27T19:09:17.022Z,52.60
2018-06-27T19:12:20.189Z,52.70
2018-06-27T19:15:23.368Z,53.20
2018-06-27T19:18:26.990Z,53.70
2018-06-27T19:21:30.136Z,53.50
2018-06-27T19:24:33.321Z,54.50
2018-06-27T19:27:36.479Z,54.70
2018-06-27T19:30:39.688Z,55.20
2018-06-27T19:33:42.895Z,56.40
2018-06-27T19:36:46.053Z,56.30
2018-06-27T19:39:49.207Z,56.60
2018-06-27T19:42:52.472Z,57.10
2018-06-27T19:45:55.634Z,57.60
2018-06-27T19:52:01.836Z,58.40
2018-06-27T19:55:05.013Z,59.50
2018-06-27T19:58:08.192Z,60.70
2018-06-27T20:01:11.335Z,61.60
2018-06-27T20:04:14.851Z,62.40
2018-06-27T20:07:18.061Z,63.40
2018-06-27T20:10:21.102Z,63.90
2018-06-27T20:13:24.268Z,64.80
2018-06-27T20:16:27.423Z,65.80
2018-06-27T20:19:30.581Z,66.20
2018-06-27T20:22:33.772Z,67.20
2018-06-27T20:25:36.938Z,67.70
2018-06-27T20:28:40.091Z,68.10
2018-06-27T20:31:43.241Z,69.90
2018-06-27T20:34:46.408Z,70.20
2018-06-27T20:37:49.871Z,71.40
2018-06-27T20:40:53.027Z,72.50
2018-06-27T20:43:56.207Z,73.00
2018-06-27T20:46:59.368Z,73.50
2018-06-27T20:50:02.515Z,74.10
2018-06-27T20:53:05.674Z,74.10
2018-06-27T20:56:08.819Z,75.40
2018-06-27T20:59:11.988Z,75.90
2018-06-27T21:02:15.158Z,76.20
2018-06-27T21:05:18.324Z,76.40
2018-06-27T21:11:24.459Z,76.50
2018-06-27T21:14:27.552Z,77.60
2018-06-27T21:17:30.680Z,78.60
2018-06-27T21:20:33.823Z,77.90
2018-06-27T21:23:36.948Z,78.70
2018-06-27T21:26:40.074Z,78.40
2018-06-27T21:29:43.208Z,78.80
2018-06-27T21:32:46.348Z,79.10
2018-06-27T21:35:49.684Z,78.90
2018-06-27T21:38:53.000Z,78.60
2018-06-27T21:41:56.132Z,78.80
2018-06-27T21:44:59.291Z,80.50
2018-06-27T21:48:02.660Z,80.40
2018-06-27T21:51:05.820Z,80.80
2018-06-27T21:54:08.952Z,81.30
2018-06-27T21:57:12.067Z,81.60
2018-06-27T22:00:16.251Z,81.30
2018-06-27T22:03:19.367Z,82.10
2018-06-27T22:06:22.519Z,81.30
2018-06-27T22:09:25.636Z,82.70
2018-06-27T22:12:28.743Z,83.00
2018-06-27T22:15:31.912Z,82.70
2018-06-27T22:18:35.085Z,83.50
2018-06-27T22:21:38.303Z,83.90
2018-06-27T22:24:41.404Z,83.70
2018-06-27T22:27:44.548Z,84.20
2018-06-27T22:30:47.794Z,84.50
2018-06-27T22:33:50.945Z,85.90
2018-06-27T22:36:54.122Z,85.80
2018-06-27T22:39:57.274Z,84.70
2018-06-27T22:43:00.492Z,85.10
2018-06-27T22:46:03.659Z,85.20
2018-06-27T22:49:06.808Z,85.20
2018-06-27T22:52:09.976Z,85.90
2018-06-27T22:55:13.138Z,86.70
2018-06-27T22:58:16.296Z,86.40
2018-06-27T23:01:19.443Z,87.80
2018-06-27T23:04:22.599Z,87.40
2018-06-27T23:07:25.748Z,87.60
2018-06-27T23:10:28.959Z,88.30
2018-06-27T23:13:32.379Z,87.70
2018-06-27T23:16:35.659Z,89.30
2018-06-27T23:19:38.772Z,88.80
2018-06-27T23:22:44.644Z,89.40
2018-06-27T23:25:47.763Z,89.60
2018-06-27T23:28:50.871Z,90.30
2018-06-27T23:31:54.008Z,89.50
2018-06-27T23:34:57.133Z,89.70
2018-06-27T23:38:00.263Z,90.10
2018-06-27T23:41:03.396Z,90.30
2018-06-27T23:44:06.513Z,90.30
2018-06-27T23:47:09.635Z,91.40
2018-06-27T23:50:12.772Z,90.60
2018-06-27T23:56:18.840Z,90.80
2018-06-27T23:59:21.951Z,91.50
